createdAt,value
2022-12-31T00:00:44.670Z,1001.23
2022-12-31T00:01:44.656Z,1001.27
2022-12-31T00:02:44.656Z,1001.24
2022-12-31T00:03:44.600Z,1001.31
2022-12-31T00:04:44.591Z,1001.23
2022-12-31T00:05:44.610Z,1001.20
2022-12-31T00:06:44.584Z,1001.23
2022-12-31T00:07:44.557Z,1001.36
2022-12-31T00:08:44.552Z,1001.29
2022-12-31T00:09:44.548Z,1001.33
2022-12-31T00:10:44.541Z,1001.24
2022-12-31T00:11:44.555Z,1001.32
2022-12-31T00:12:44.500Z,1001.31
2022-12-31T00:13:44.491Z,1001.36
2022-12-31T00:14:44.491Z,1001.33
2022-12-31T00:15:44.482Z,1001.35
2022-12-31T00:16:44.535Z,1001.29
2022-12-31T00:17:44.460Z,1001.31
2022-12-31T00:18:44.452Z,1001.28
2022-12-31T00:19:44.436Z,1001.31
2022-12-31T00:20:44.426Z,1001.31
2022-12-31T00:21:44.411Z,1001.33
2022-12-31T00:22:44.424Z,1001.33
2022-12-31T00:23:44.391Z,1001.46
2022-12-31T00:24:44.384Z,1001.47
2022-12-31T00:25:44.367Z,1001.42
2022-12-31T00:26:44.363Z,1001.46
2022-12-31T00:27:44.378Z,1001.41
2022-12-31T00:28:44.331Z,1001.51
2022-12-31T00:29:44.314Z,1001.48
2022-12-31T00:30:44.378Z,1001.41
2022-12-31T00:31:44.319Z,1001.46
2022-12-31T00:32:44.294Z,1001.44
2022-12-31T00:33:44.313Z,1001.41
2022-12-31T00:34:44.271Z,1001.55
2022-12-31T00:35:44.254Z,1001.55
2022-12-31T00:36:44.241Z,1001.52
2022-12-31T00:37:44.243Z,1001.46
2022-12-31T00:38:44.242Z,1001.51
2022-12-31T00:39:44.240Z,1001.48
2022-12-31T00:40:44.198Z,1001.50
2022-12-31T00:41:44.286Z,1001.52
2022-12-31T00:42:44.176Z,1001.44
2022-12-31T00:43:44.202Z,1001.47
2022-12-31T00:44:44.163Z,1001.46
2022-12-31T00:45:44.181Z,1001.41
2022-12-31T00:46:45.177Z,1001.43
2022-12-31T00:47:44.151Z,1001.33
2022-12-31T00:48:44.115Z,1001.39
2022-12-31T00:49:44.143Z,1001.40
2022-12-31T00:50:44.091Z,1001.42
2022-12-31T00:51:44.087Z,1001.34
2022-12-31T00:52:44.087Z,1001.34
2022-12-31T00:53:44.068Z,1001.39
2022-12-31T00:54:44.093Z,1001.35
2022-12-31T00:55:44.040Z,1001.39
2022-12-31T00:56:44.034Z,1001.51
2022-12-31T00:57:44.010Z,1001.46
2022-12-31T00:58:44.017Z,1001.43
2022-12-31T00:59:44.041Z,1001.42
2022-12-31T01:00:43.982Z,1001.44
2022-12-31T01:01:44.145Z,1001.50
2022-12-31T01:02:44.206Z,1001.48
2022-12-31T01:03:43.967Z,1001.56
2022-12-31T01:04:43.938Z,1001.59
2022-12-31T01:05:43.969Z,1001.65
2022-12-31T01:06:43.939Z,1001.70
2022-12-31T01:07:43.913Z,1001.68
2022-12-31T01:08:43.897Z,1001.70
2022-12-31T01:09:43.902Z,1001.71
2022-12-31T01:10:43.877Z,1001.78
2022-12-31T01:11:43.894Z,1001.79
2022-12-31T01:12:43.863Z,1001.77
2022-12-31T01:13:43.848Z,1001.85
2022-12-31T01:14:43.844Z,1001.77
2022-12-31T01:15:43.861Z,1001.78
2022-12-31T01:16:43.839Z,1001.75
2022-12-31T01:17:43.796Z,1001.80
2022-12-31T01:18:43.794Z,1001.73
2022-12-31T01:19:43.831Z,1001.79
2022-12-31T01:20:43.788Z,1001.79
2022-12-31T01:21:43.769Z,1001.74
2022-12-31T01:22:43.798Z,1001.73
2022-12-31T01:23:43.735Z,1001.71
2022-12-31T01:24:43.738Z,1001.73
2022-12-31T01:25:43.725Z,1001.69
2022-12-31T01:26:43.744Z,1001.73
2022-12-31T01:27:43.692Z,1001.83
2022-12-31T01:28:43.688Z,1001.86
2022-12-31T01:29:43.686Z,1001.81
2022-12-31T01:30:43.704Z,1001.85
2022-12-31T01:31:43.656Z,1001.87
2022-12-31T01:32:43.662Z,1001.88
2022-12-31T01:33:43.635Z,1001.85
2022-12-31T01:34:43.648Z,1001.85
2022-12-31T01:35:43.633Z,1001.84
2022-12-31T01:36:43.603Z,1001.82
2022-12-31T01:37:43.581Z,1001.81
2022-12-31T01:38:43.585Z,1001.95
2022-12-31T01:39:43.566Z,1001.96
2022-12-31T01:40:43.581Z,1001.95
2022-12-31T01:41:43.548Z,1001.86
2022-12-31T01:42:43.539Z,1001.90
2022-12-31T01:43:43.561Z,1001.93
2022-12-31T01:44:43.516Z,1001.96
2022-12-31T01:45:43.501Z,1001.92
2022-12-31T01:46:43.511Z,1002.04
2022-12-31T01:47:43.481Z,1002.02
2022-12-31T01:48:43.464Z,1002.08
2022-12-31T01:49:43.484Z,1002.04
2022-12-31T01:50:43.473Z,1002.04
2022-12-31T01:51:43.454Z,1002.10
2022-12-31T01:52:43.426Z,1002.05
2022-12-31T01:53:43.424Z,1002.11
2022-12-31T01:54:43.426Z,1002.12
2022-12-31T01:55:43.394Z,1002.15
2022-12-31T01:56:43.424Z,1002.18
2022-12-31T01:57:43.376Z,1002.11
2022-12-31T01:58:43.357Z,1002.11
2022-12-31T01:59:43.361Z,1002.15
2022-12-31T02:00:43.373Z,1002.09
2022-12-31T02:01:43.383Z,1002.02
2022-12-31T02:02:43.395Z,1002.07
2022-12-31T02:03:43.314Z,1002.03
2022-12-31T02:04:43.298Z,1002.08
2022-12-31T02:05:43.281Z,1002.11
2022-12-31T02:06:43.296Z,1002.16
2022-12-31T02:07:43.295Z,1002.14
2022-12-31T02:08:43.250Z,1002.11
2022-12-31T02:09:43.239Z,1002.11
2022-12-31T02:10:43.224Z,1002.15
2022-12-31T02:11:43.252Z,1002.10
2022-12-31T02:12:43.210Z,1002.14
2022-12-31T02:13:43.205Z,1002.16
2022-12-31T02:14:52.724Z,1002.20
2022-12-31T02:15:43.213Z,1002.25
2022-12-31T02:16:43.195Z,1002.26
2022-12-31T02:17:43.164Z,1002.20
2022-12-31T02:18:43.149Z,1002.21
2022-12-31T02:19:43.136Z,1002.19
2022-12-31T02:20:43.127Z,1002.23
2022-12-31T02:21:43.119Z,1002.27
2022-12-31T02:22:43.127Z,1002.28
2022-12-31T02:23:43.111Z,1002.29
2022-12-31T02:24:43.098Z,1002.33
2022-12-31T02:25:43.077Z,1002.20
2022-12-31T02:26:43.055Z,1002.27
2022-12-31T02:27:43.092Z,1002.31
2022-12-31T02:28:43.035Z,1002.25
2022-12-31T02:29:43.024Z,1002.24
2022-12-31T02:30:43.020Z,1002.16
2022-12-31T02:31:43.062Z,1002.18
2022-12-31T02:32:43.042Z,1002.16
2022-12-31T02:33:42.990Z,1002.22
2022-12-31T02:34:42.967Z,1002.19
2022-12-31T02:35:42.964Z,1002.18
2022-12-31T02:36:42.963Z,1002.16
2022-12-31T02:37:42.940Z,1002.11
2022-12-31T02:38:42.954Z,1002.16
2022-12-31T02:39:42.950Z,1002.11
2022-12-31T02:40:42.906Z,1002.12
2022-12-31T02:41:42.905Z,1002.08
2022-12-31T02:42:42.902Z,1002.13
2022-12-31T02:43:42.906Z,1002.04
2022-12-31T02:44:42.935Z,1002.04
2022-12-31T02:45:42.853Z,1002.07
2022-12-31T02:46:42.891Z,1002.19
2022-12-31T02:47:42.830Z,1002.10
2022-12-31T02:48:42.837Z,1002.09
2022-12-31T02:49:42.858Z,1002.09
2022-12-31T02:50:42.804Z,1002.01
2022-12-31T02:51:42.791Z,1002.10
2022-12-31T02:52:42.794Z,1002.11
2022-12-31T02:53:42.791Z,1002.15
2022-12-31T02:54:42.787Z,1002.14
2022-12-31T02:55:42.771Z,1002.13
2022-12-31T02:56:42.739Z,1002.15
2022-12-31T02:57:42.723Z,1002.14
2022-12-31T02:58:42.711Z,1002.20
2022-12-31T02:59:42.732Z,1002.15
2022-12-31T03:00:42.788Z,1002.15
2022-12-31T03:01:42.929Z,1002.17
2022-12-31T03:02:42.711Z,1002.16
2022-12-31T03:03:42.679Z,1002.15
2022-12-31T03:04:42.653Z,1002.10
2022-12-31T03:05:42.643Z,1002.10
2022-12-31T03:06:42.680Z,1002.07
2022-12-31T03:07:42.618Z,1002.02
2022-12-31T03:08:42.615Z,1002.04
2022-12-31T03:09:42.608Z,1001.99
2022-12-31T03:10:42.620Z,1001.99
2022-12-31T03:11:42.629Z,1002.03
2022-12-31T03:12:42.567Z,1002.00
2022-12-31T03:13:42.555Z,1002.07
2022-12-31T03:14:42.546Z,1002.07
2022-12-31T03:15:42.532Z,1002.10
2022-12-31T03:16:42.537Z,1002.11
2022-12-31T03:17:42.549Z,1002.07
2022-12-31T03:18:42.502Z,1002.06
2022-12-31T03:19:42.515Z,1002.03
2022-12-31T03:20:42.475Z,1002.08
2022-12-31T03:21:42.461Z,1002.10
2022-12-31T03:22:42.511Z,1002.11
2022-12-31T03:23:42.445Z,1002.05
2022-12-31T03:24:42.426Z,1002.05
2022-12-31T03:25:42.418Z,1002.08
2022-12-31T03:26:42.407Z,1002.04
2022-12-31T03:27:42.436Z,1002.12
2022-12-31T03:28:42.456Z,1002.04
2022-12-31T03:29:42.375Z,1002.07
2022-12-31T03:30:42.359Z,1002.00
2022-12-31T03:31:42.421Z,1001.97
2022-12-31T03:32:42.345Z,1001.98
2022-12-31T03:33:42.359Z,1001.94
2022-12-31T03:34:42.327Z,1001.96
2022-12-31T03:35:42.318Z,1001.97
2022-12-31T03:36:42.308Z,1002.01
2022-12-31T03:37:42.305Z,1002.02
2022-12-31T03:38:42.283Z,1002.01
2022-12-31T03:39:42.294Z,1001.97
2022-12-31T03:40:42.288Z,1001.99
2022-12-31T03:41:42.252Z,1002.03
2022-12-31T03:42:42.254Z,1002.05
2022-12-31T03:43:42.278Z,1002.00
2022-12-31T03:44:42.269Z,1001.96
2022-12-31T03:45:42.293Z,1001.93
2022-12-31T03:46:42.292Z,1001.89
2022-12-31T03:47:42.241Z,1001.84
2022-12-31T03:48:42.184Z,1001.85
2022-12-31T03:49:42.164Z,1001.85
2022-12-31T03:50:42.168Z,1001.85
2022-12-31T03:51:42.164Z,1001.79
2022-12-31T03:52:42.177Z,1001.79
2022-12-31T03:53:42.134Z,1001.75
2022-12-31T03:54:42.138Z,1001.76
2022-12-31T03:55:42.110Z,1001.72
2022-12-31T03:56:42.098Z,1001.68
2022-12-31T03:57:42.105Z,1001.75
2022-12-31T03:58:42.076Z,1001.66
2022-12-31T03:59:42.097Z,1001.71
2022-12-31T04:00:42.148Z,1001.58
2022-12-31T04:01:42.250Z,1001.59
2022-12-31T04:02:42.120Z,1001.58
2022-12-31T04:03:42.019Z,1001.60
2022-12-31T04:04:42.007Z,1001.65
2022-12-31T04:05:42.022Z,1001.66
2022-12-31T04:06:41.982Z,1001.61
2022-12-31T04:07:41.969Z,1001.66
2022-12-31T04:08:41.959Z,1001.66
2022-12-31T04:09:41.943Z,1001.69
2022-12-31T04:10:41.948Z,1001.73
2022-12-31T04:11:41.942Z,1001.67
2022-12-31T04:12:41.941Z,1001.71
2022-12-31T04:13:41.916Z,1001.67
2022-12-31T04:14:41.900Z,1001.64
2022-12-31T04:15:41.906Z,1001.71
2022-12-31T04:16:41.966Z,1001.69
2022-12-31T04:17:41.854Z,1001.74
2022-12-31T04:18:41.886Z,1001.76
2022-12-31T04:19:41.843Z,1001.77
2022-12-31T04:20:41.867Z,1001.72
2022-12-31T04:21:41.810Z,1001.70
2022-12-31T04:22:41.810Z,1001.67
2022-12-31T04:23:41.795Z,1001.67
2022-12-31T04:24:41.790Z,1001.62
2022-12-31T04:25:41.805Z,1001.68
2022-12-31T04:26:41.762Z,1001.69
2022-12-31T04:27:41.754Z,1001.64
2022-12-31T04:28:41.769Z,1001.64
2022-12-31T04:29:41.738Z,1001.67
2022-12-31T04:30:41.720Z,1001.71
2022-12-31T04:31:41.809Z,1001.70
2022-12-31T04:32:41.721Z,1001.79
2022-12-31T04:33:41.700Z,1001.73
2022-12-31T04:34:41.706Z,1001.77
2022-12-31T04:35:41.663Z,1001.77
2022-12-31T04:36:41.683Z,1001.72
2022-12-31T04:37:41.674Z,1001.77
2022-12-31T04:38:41.655Z,1001.73
2022-12-31T04:39:41.626Z,1001.72
2022-12-31T04:40:41.631Z,1001.74
2022-12-31T04:41:41.602Z,1001.71
2022-12-31T04:42:41.598Z,1001.75
2022-12-31T04:43:41.589Z,1001.70
2022-12-31T04:44:41.593Z,1001.66
2022-12-31T04:45:41.595Z,1001.67
2022-12-31T04:46:41.575Z,1001.63
2022-12-31T04:47:41.549Z,1001.60
2022-12-31T04:48:41.633Z,1001.62
2022-12-31T04:49:41.525Z,1001.55
2022-12-31T04:50:41.501Z,1001.63
2022-12-31T04:51:41.853Z,1001.61
2022-12-31T04:52:43.070Z,1001.52
2022-12-31T04:53:41.470Z,1001.37
2022-12-31T04:54:41.487Z,1001.35
2022-12-31T04:55:41.504Z,1001.26
2022-12-31T04:56:41.502Z,1001.25
2022-12-31T04:57:41.446Z,1001.25
2022-12-31T04:58:41.422Z,1001.27
2022-12-31T04:59:41.413Z,1001.30
2022-12-31T05:00:41.415Z,1001.26
2022-12-31T05:01:41.472Z,1001.21
2022-12-31T05:02:41.599Z,1001.24
2022-12-31T05:03:41.378Z,1001.26
2022-12-31T05:04:41.361Z,1001.29
2022-12-31T05:05:41.339Z,1001.29
2022-12-31T05:06:41.352Z,1001.26
2022-12-31T05:07:41.338Z,1001.20
2022-12-31T05:08:41.305Z,1001.21
2022-12-31T05:09:41.295Z,1001.17
2022-12-31T05:10:41.276Z,1001.21
2022-12-31T05:11:41.307Z,1001.22
2022-12-31T05:12:41.268Z,1001.16
2022-12-31T05:13:41.252Z,1001.19
2022-12-31T05:14:41.254Z,1001.18
2022-12-31T05:15:41.220Z,1001.16
2022-12-31T05:16:41.303Z,1001.21
2022-12-31T05:17:41.213Z,1001.25
2022-12-31T05:18:41.203Z,1001.21
2022-12-31T05:19:41.205Z,1001.24
2022-12-31T05:20:41.171Z,1001.34
2022-12-31T05:21:41.216Z,1001.27
2022-12-31T05:22:41.179Z,1001.34
2022-12-31T05:23:41.150Z,1001.37
2022-12-31T05:24:41.131Z,1001.36
2022-12-31T05:25:41.167Z,1001.38
2022-12-31T05:26:41.112Z,1001.40
2022-12-31T05:27:41.138Z,1001.40
2022-12-31T05:28:41.124Z,1001.34
2022-12-31T05:29:41.086Z,1001.36
2022-12-31T05:30:41.121Z,1001.34
2022-12-31T05:31:41.063Z,1001.40
2022-12-31T05:32:41.072Z,1001.40
2022-12-31T05:33:41.059Z,1001.46
2022-12-31T05:34:41.021Z,1001.54
2022-12-31T05:35:41.037Z,1001.57
2022-12-31T05:36:40.997Z,1001.58
2022-12-31T05:37:41.005Z,1001.54
2022-12-31T05:38:41.015Z,1001.52
2022-12-31T05:39:40.976Z,1001.58
2022-12-31T05:40:40.958Z,1001.37
2022-12-31T05:41:40.950Z,1001.31
2022-12-31T05:42:40.939Z,1001.26
2022-12-31T05:43:40.964Z,1001.22
2022-12-31T05:44:40.915Z,1001.13
2022-12-31T05:45:41.071Z,1001.14
2022-12-31T05:46:40.903Z,1001.04
2022-12-31T05:47:40.892Z,1001.05
2022-12-31T05:48:40.873Z,1001.01
2022-12-31T05:49:40.902Z,1000.99
2022-12-31T05:50:40.873Z,1001.02
2022-12-31T05:51:40.856Z,1000.97
2022-12-31T05:52:45.678Z,1000.96
2022-12-31T05:53:41.860Z,1000.97
2022-12-31T05:54:40.814Z,1000.93
2022-12-31T05:55:40.828Z,1000.99
2022-12-31T05:56:40.792Z,1000.95
2022-12-31T05:57:40.770Z,1000.97
2022-12-31T05:58:40.766Z,1000.98
2022-12-31T05:59:40.766Z,1000.93
2022-12-31T06:00:40.776Z,1000.89
2022-12-31T06:01:40.754Z,1000.87
2022-12-31T06:02:40.757Z,1000.89
2022-12-31T06:03:40.757Z,1000.87
2022-12-31T06:04:40.702Z,1000.91
2022-12-31T06:05:40.686Z,1000.74
2022-12-31T06:06:40.707Z,1000.76
2022-12-31T06:07:40.720Z,1000.76
2022-12-31T06:08:40.666Z,1000.87
2022-12-31T06:09:40.651Z,1000.83
2022-12-31T06:10:40.626Z,1000.80
2022-12-31T06:11:40.630Z,1000.73
2022-12-31T06:12:40.652Z,1000.74
2022-12-31T06:13:40.603Z,1000.70
2022-12-31T06:14:45.595Z,1000.76
2022-12-31T06:15:40.638Z,1000.62
2022-12-31T06:16:40.571Z,1000.60
2022-12-31T06:17:40.596Z,1000.68
2022-12-31T06:18:40.544Z,1000.65
2022-12-31T06:19:40.539Z,1000.69
2022-12-31T06:20:40.531Z,1000.71
2022-12-31T06:21:40.514Z,1000.71
2022-12-31T06:22:40.509Z,1000.82
2022-12-31T06:23:40.638Z,1000.73
2022-12-31T06:24:40.490Z,1000.62
2022-12-31T06:25:40.475Z,1000.77
2022-12-31T06:26:40.463Z,1000.65
2022-12-31T06:27:40.464Z,1000.67
2022-12-31T06:28:40.435Z,1000.73
2022-12-31T06:29:40.461Z,1000.68
2022-12-31T06:30:40.423Z,1000.78
2022-12-31T06:31:40.411Z,1000.65
2022-12-31T06:32:40.391Z,1000.67
2022-12-31T06:33:40.390Z,1000.59
2022-12-31T06:34:40.372Z,1000.63
2022-12-31T06:35:40.402Z,1000.61
2022-12-31T06:36:40.370Z,1000.62
2022-12-31T06:37:40.363Z,1000.61
2022-12-31T06:38:40.325Z,1000.68
2022-12-31T06:39:40.369Z,1000.63
2022-12-31T06:40:40.315Z,1000.69
2022-12-31T06:41:40.300Z,1000.64
2022-12-31T06:42:40.292Z,1000.62
2022-12-31T06:43:40.274Z,1000.63
2022-12-31T06:44:40.302Z,1000.68
2022-12-31T06:45:40.270Z,1000.63
2022-12-31T06:46:40.327Z,1000.62
2022-12-31T06:47:40.230Z,1000.65
2022-12-31T06:48:40.230Z,1000.69
2022-12-31T06:49:40.214Z,1000.63
2022-12-31T06:50:40.232Z,1000.71
2022-12-31T06:51:40.185Z,1000.60
2022-12-31T06:52:40.169Z,1000.51
2022-12-31T06:53:40.171Z,1000.73
2022-12-31T06:54:40.165Z,1000.56
2022-12-31T06:55:40.280Z,1000.58
2022-12-31T06:56:40.157Z,1000.57
2022-12-31T06:57:40.120Z,1000.53
2022-12-31T06:58:40.115Z,1000.56
2022-12-31T06:59:40.099Z,1000.57
2022-12-31T07:00:40.110Z,1000.57
2022-12-31T07:01:40.271Z,1000.59
2022-12-31T07:02:40.153Z,1000.54
2022-12-31T07:03:40.072Z,1000.51
2022-12-31T07:04:40.051Z,1000.66
2022-12-31T07:05:40.054Z,1000.49
2022-12-31T07:06:40.057Z,1000.49
2022-12-31T07:07:40.018Z,1000.56
2022-12-31T07:08:40.000Z,1000.49
2022-12-31T07:09:39.998Z,1000.52
2022-12-31T07:10:39.988Z,1000.49
2022-12-31T07:11:40.028Z,1000.50
2022-12-31T07:12:39.969Z,1000.54
2022-12-31T07:13:39.952Z,1000.45
2022-12-31T07:14:39.938Z,1000.54
2022-12-31T07:15:39.971Z,1000.44
2022-12-31T07:16:39.952Z,1000.41
2022-12-31T07:17:39.915Z,1000.34
2022-12-31T07:18:39.927Z,1000.31
2022-12-31T07:19:39.904Z,1000.34
2022-12-31T07:20:39.873Z,1000.37
2022-12-31T07:21:39.903Z,1000.31
2022-12-31T07:22:39.859Z,1000.40
2022-12-31T07:23:39.881Z,1000.38
2022-12-31T07:24:39.834Z,1000.41
2022-12-31T07:25:39.823Z,1000.40
2022-12-31T07:26:39.819Z,1000.38
2022-12-31T07:27:39.808Z,1000.33
2022-12-31T07:28:39.788Z,1000.29
2022-12-31T07:29:39.800Z,1000.46
2022-12-31T07:30:39.812Z,1000.48
2022-12-31T07:31:39.793Z,1000.37
2022-12-31T07:32:39.743Z,1000.42
2022-12-31T07:33:39.730Z,1000.60
2022-12-31T07:34:39.755Z,1000.62
2022-12-31T07:35:39.717Z,1000.54
2022-12-31T07:36:39.726Z,1000.60
2022-12-31T07:37:39.687Z,1000.46
2022-12-31T07:38:39.683Z,1000.47
2022-12-31T07:39:39.679Z,1000.42
2022-12-31T07:40:39.726Z,1000.45
2022-12-31T07:41:39.646Z,1000.35
2022-12-31T07:42:39.644Z,1000.46
2022-12-31T07:43:39.646Z,1000.48
2022-12-31T07:44:39.621Z,1000.47
2022-12-31T07:45:39.609Z,1000.56
2022-12-31T07:46:39.669Z,1000.54
2022-12-31T07:47:39.581Z,1000.61
2022-12-31T07:48:39.580Z,1000.57
2022-12-31T07:49:39.566Z,1000.53
2022-12-31T07:50:39.557Z,1000.70
2022-12-31T07:51:39.550Z,1000.67
2022-12-31T07:52:39.549Z,1000.65
2022-12-31T07:53:39.528Z,1000.59
2022-12-31T07:54:39.531Z,1000.66
2022-12-31T07:55:39.493Z,1000.78
2022-12-31T07:56:39.499Z,1000.84
2022-12-31T07:57:39.472Z,1000.71
2022-12-31T07:58:39.506Z,1000.75
2022-12-31T07:59:39.467Z,1000.91
2022-12-31T08:00:39.471Z,1000.73
2022-12-31T08:01:39.636Z,1000.81
2022-12-31T08:02:39.454Z,1000.70
2022-12-31T08:03:39.422Z,1000.75
2022-12-31T08:04:39.448Z,1000.87
2022-12-31T08:05:39.393Z,1000.77
2022-12-31T08:06:39.377Z,1000.79
2022-12-31T08:07:39.370Z,1000.97
2022-12-31T08:08:39.402Z,1000.78
2022-12-31T08:09:39.345Z,1000.83
2022-12-31T08:10:39.380Z,1000.85
2022-12-31T08:11:39.333Z,1000.70
2022-12-31T08:12:39.314Z,1000.77
2022-12-31T08:13:39.301Z,1000.79
2022-12-31T08:14:39.319Z,1000.77
2022-12-31T08:15:46.903Z,1000.80
2022-12-31T08:16:39.326Z,1000.84
2022-12-31T08:17:39.270Z,1000.66
2022-12-31T08:18:39.250Z,1000.67
2022-12-31T08:19:39.257Z,1000.79
2022-12-31T08:20:39.233Z,1000.85
2022-12-31T08:21:39.213Z,1000.72
2022-12-31T08:22:39.244Z,1000.76
2022-12-31T08:23:39.200Z,1000.76
2022-12-31T08:24:39.210Z,1000.68
2022-12-31T08:25:39.169Z,1000.79
2022-12-31T08:26:39.164Z,1000.84
2022-12-31T08:27:39.157Z,1000.96
2022-12-31T08:28:39.138Z,1000.81
2022-12-31T08:29:39.147Z,1001.19
2022-12-31T08:30:39.149Z,1000.85
2022-12-31T08:31:39.166Z,1000.75
2022-12-31T08:32:39.106Z,1000.71
2022-12-31T08:33:39.085Z,1000.82
2022-12-31T08:34:39.087Z,1000.69
2022-12-31T08:35:39.109Z,1000.78
2022-12-31T08:36:39.053Z,1000.79
2022-12-31T08:37:39.059Z,1000.79
2022-12-31T08:38:39.041Z,1000.84
2022-12-31T08:39:39.030Z,1000.81
2022-12-31T08:40:39.044Z,1000.85
2022-12-31T08:41:42.620Z,1000.94
2022-12-31T08:42:38.992Z,1000.87
2022-12-31T08:43:39.004Z,1000.90
2022-12-31T08:44:38.975Z,1000.86
2022-12-31T08:45:39.003Z,1000.90
2022-12-31T08:46:38.972Z,1000.95
2022-12-31T08:47:38.959Z,1000.87
2022-12-31T08:48:38.926Z,1000.90
2022-12-31T08:49:38.910Z,1000.70
2022-12-31T08:50:38.958Z,1000.93
2022-12-31T08:51:38.927Z,1000.71
2022-12-31T08:52:38.887Z,1000.79
2022-12-31T08:53:38.875Z,1000.87
2022-12-31T08:54:38.861Z,1000.94
2022-12-31T08:55:38.854Z,1000.95
2022-12-31T08:56:38.845Z,1000.99
2022-12-31T08:57:38.847Z,1000.85
2022-12-31T08:58:38.826Z,1000.90
2022-12-31T08:59:38.811Z,1001.10
2022-12-31T09:00:38.801Z,1001.05
2022-12-31T09:01:38.881Z,1000.98
2022-12-31T09:02:43.201Z,1001.01
2022-12-31T09:03:39.789Z,1000.98
2022-12-31T09:04:38.752Z,1000.99
2022-12-31T09:05:38.743Z,1000.99
2022-12-31T09:06:38.733Z,1001.08
2022-12-31T09:07:38.728Z,1001.03
2022-12-31T09:08:38.745Z,1001.11
2022-12-31T09:09:38.702Z,1001.08
2022-12-31T09:10:38.680Z,1001.10
2022-12-31T09:11:38.682Z,1001.12
2022-12-31T09:12:38.662Z,1001.11
2022-12-31T09:13:38.667Z,1001.09
2022-12-31T09:14:38.682Z,1001.07
2022-12-31T09:15:38.640Z,1001.02
2022-12-31T09:16:38.697Z,1001.03
2022-12-31T09:17:38.605Z,1001.13
2022-12-31T09:18:38.604Z,1000.88
2022-12-31T09:19:38.632Z,1001.06
2022-12-31T09:20:43.451Z,1001.00
2022-12-31T09:21:39.567Z,1001.01
2022-12-31T09:22:38.560Z,1001.16
2022-12-31T09:23:38.566Z,1001.11
2022-12-31T09:24:38.531Z,1001.04
2022-12-31T09:25:38.537Z,1001.17
2022-12-31T09:26:38.510Z,1001.01
2022-12-31T09:27:38.514Z,1000.93
2022-12-31T09:28:38.502Z,1001.03
2022-12-31T09:29:38.513Z,1000.88
2022-12-31T09:30:38.468Z,1000.97
2022-12-31T09:31:38.631Z,1000.98
2022-12-31T09:32:38.449Z,1000.83
2022-12-31T09:33:38.445Z,1000.95
2022-12-31T09:34:38.456Z,1000.86
2022-12-31T09:35:38.441Z,1000.89
2022-12-31T09:36:38.411Z,1001.00
2022-12-31T09:37:38.397Z,1001.12
2022-12-31T09:38:38.384Z,1000.95
2022-12-31T09:39:38.377Z,1000.97
2022-12-31T09:40:38.418Z,1001.03
2022-12-31T09:41:38.348Z,1000.87
2022-12-31T09:42:38.335Z,1000.89
2022-12-31T09:43:38.323Z,1000.77
2022-12-31T09:44:38.317Z,1000.76
2022-12-31T09:45:38.353Z,1000.79
2022-12-31T09:46:38.297Z,1000.82
2022-12-31T09:47:38.289Z,1000.86
2022-12-31T09:48:38.273Z,1000.93
2022-12-31T09:49:38.267Z,1000.85
2022-12-31T09:50:38.245Z,1000.75
2022-12-31T09:51:38.311Z,1000.71
2022-12-31T09:52:38.246Z,1000.88
2022-12-31T09:53:38.212Z,1000.99
2022-12-31T09:54:38.215Z,1000.87
2022-12-31T09:55:38.208Z,1000.87
2022-12-31T09:56:38.197Z,1000.77
2022-12-31T09:57:38.207Z,1000.90
2022-12-31T09:58:38.159Z,1000.86
2022-12-31T09:59:38.155Z,1000.69
2022-12-31T10:00:38.140Z,1000.64
2022-12-31T10:01:38.327Z,1000.81
2022-12-31T10:02:38.290Z,1000.68
2022-12-31T10:03:38.143Z,1000.77
2022-12-31T10:04:38.130Z,1000.81
2022-12-31T10:05:38.929Z,1000.76
2022-12-31T10:06:38.080Z,1000.78
2022-12-31T10:07:38.163Z,1000.71
2022-12-31T10:08:38.065Z,1000.80
2022-12-31T10:09:38.065Z,1000.84
2022-12-31T10:10:38.036Z,1000.83
2022-12-31T10:11:38.032Z,1000.69
2022-12-31T10:12:38.035Z,1000.84
2022-12-31T10:13:38.045Z,1000.82
2022-12-31T10:14:41.062Z,1000.80
2022-12-31T10:15:38.981Z,1001.00
2022-12-31T10:16:38.076Z,1000.96
2022-12-31T10:17:37.964Z,1000.88
2022-12-31T10:18:37.948Z,1000.82
2022-12-31T10:19:37.965Z,1000.97
2022-12-31T10:20:44.921Z,1000.82
2022-12-31T10:21:38.919Z,1000.99
2022-12-31T10:22:37.900Z,1000.98
2022-12-31T10:23:37.953Z,1001.08
2022-12-31T10:24:37.894Z,1000.97
2022-12-31T10:25:39.682Z,1000.95
2022-12-31T10:26:37.884Z,1001.03
2022-12-31T10:27:37.869Z,1001.04
2022-12-31T10:28:37.881Z,1001.24
2022-12-31T10:29:37.850Z,1001.08
2022-12-31T10:30:37.860Z,1001.06
2022-12-31T10:31:37.877Z,1001.03
2022-12-31T10:32:37.825Z,1001.09
2022-12-31T10:33:37.788Z,1001.06
2022-12-31T10:34:37.816Z,1001.01
2022-12-31T10:35:37.795Z,1001.04
2022-12-31T10:36:37.757Z,1001.04
2022-12-31T10:37:37.741Z,1001.11
2022-12-31T10:38:37.733Z,1001.24
2022-12-31T10:39:37.740Z,1001.16
2022-12-31T10:40:37.726Z,1001.45
2022-12-31T10:41:37.707Z,1001.38
2022-12-31T10:42:37.698Z,1001.32
2022-12-31T10:43:37.682Z,1001.36
2022-12-31T10:44:37.668Z,1001.38
2022-12-31T10:45:37.678Z,1001.43
2022-12-31T10:46:37.682Z,1001.41
2022-12-31T10:47:37.641Z,1001.44
2022-12-31T10:48:37.625Z,1001.52
2022-12-31T10:49:37.624Z,1001.56
2022-12-31T10:50:37.632Z,1001.48
2022-12-31T10:51:37.594Z,1001.62
2022-12-31T10:52:41.719Z,1001.47
2022-12-31T10:53:37.583Z,1001.53
2022-12-31T10:54:37.552Z,1001.52
2022-12-31T10:55:37.592Z,1001.53
2022-12-31T10:56:37.563Z,1001.58
2022-12-31T10:57:37.533Z,1001.55
2022-12-31T10:58:37.520Z,1001.54
2022-12-31T10:59:37.504Z,1001.67
2022-12-31T11:00:37.500Z,1001.62
2022-12-31T11:01:37.600Z,1001.63
2022-12-31T11:02:37.661Z,1001.63
2022-12-31T11:03:37.511Z,1001.64
2022-12-31T11:04:37.450Z,1001.78
2022-12-31T11:05:37.447Z,1001.66
2022-12-31T11:06:37.452Z,1001.62
2022-12-31T11:07:37.449Z,1001.65
2022-12-31T11:08:37.410Z,1001.64
2022-12-31T11:09:37.400Z,1001.78
2022-12-31T11:10:37.388Z,1001.68
2022-12-31T11:11:37.425Z,1001.73
2022-12-31T11:12:37.385Z,1001.68
2022-12-31T11:13:37.354Z,1001.71
2022-12-31T11:14:37.374Z,1001.79
2022-12-31T11:15:37.370Z,1001.82
2022-12-31T11:16:37.326Z,1001.84
2022-12-31T11:17:37.321Z,1001.85
2022-12-31T11:18:37.313Z,1001.79
2022-12-31T11:19:37.308Z,1001.70
2022-12-31T11:20:37.304Z,1001.79
2022-12-31T11:21:41.344Z,1001.82
2022-12-31T11:22:37.296Z,1001.77
2022-12-31T11:23:37.250Z,1001.81
2022-12-31T11:24:37.248Z,1001.76
2022-12-31T11:25:37.228Z,1001.69
2022-12-31T11:26:37.217Z,1001.71
2022-12-31T11:27:37.220Z,1001.71
2022-12-31T11:28:37.221Z,1001.75
2022-12-31T11:29:37.182Z,1001.71
2022-12-31T11:30:37.187Z,1001.71
2022-12-31T11:31:37.157Z,1001.74
2022-12-31T11:32:37.142Z,1001.74
2022-12-31T11:33:37.160Z,1001.73
2022-12-31T11:34:37.135Z,1001.66
2022-12-31T11:35:37.117Z,1001.62
2022-12-31T11:36:37.123Z,1001.63
2022-12-31T11:37:37.088Z,1001.61
2022-12-31T11:38:37.118Z,1001.58
2022-12-31T11:39:37.069Z,1001.55
2022-12-31T11:40:37.064Z,1001.44
2022-12-31T11:41:37.051Z,1001.47
2022-12-31T11:42:37.043Z,1001.45
2022-12-31T11:43:37.047Z,1001.59
2022-12-31T11:44:37.060Z,1001.44
2022-12-31T11:45:37.005Z,1001.35
2022-12-31T11:46:37.108Z,1001.41
2022-12-31T11:47:49.615Z,1001.33
2022-12-31T11:48:37.969Z,1001.42
2022-12-31T11:49:36.988Z,1001.36
2022-12-31T11:50:36.957Z,1001.32
2022-12-31T11:51:36.937Z,1001.34
2022-12-31T11:52:36.935Z,1001.39
2022-12-31T11:53:36.940Z,1001.46
2022-12-31T11:54:36.918Z,1001.41
2022-12-31T11:55:36.922Z,1001.40
2022-12-31T11:56:36.895Z,1001.36
2022-12-31T11:57:36.874Z,1001.43
2022-12-31T11:58:36.881Z,1001.43
2022-12-31T11:59:36.897Z,1001.31
2022-12-31T12:00:36.873Z,1001.35
2022-12-31T12:01:36.896Z,1001.25
2022-12-31T12:02:36.911Z,1001.18
2022-12-31T12:03:36.856Z,1001.26
2022-12-31T12:04:36.810Z,1001.28
2022-12-31T12:05:36.787Z,1001.29